IB966 LPPT-GMMN
Flight info
| Callsign | IB966 |
|---|---|
| Flight time | 1h 10m |
| Altitude | 20000 |
| Route | DUZOP VFA OSLAD UR724 NISBA RAVOL GMMN |
| Aircraft | A320/M-V/N |
Departure
| Time | 2026-05-07 19:35 |
|---|---|
| Airport | Lisbon Humberto Delgado Airport (LPPT) |
Arrival
| Time | 2026-05-07 20:45 |
|---|---|
| Airport | Mohammed V International Airport (GMMN) |
| Time | Latitude | Longitude | Altitude | Speed | Heading |
|---|---|---|---|---|---|
| 2026-05-07 18:56 | 38.76835 | -9.13739 | 347 ft | 0 kts | 78° |
| 2026-05-07 19:20 | 38.76833 | -9.13752 | 357 ft | 2 kts | 78° |
| 2026-05-07 19:20 | 38.76830 | -9.13771 | 356 ft | 2 kts | 78° |
| 2026-05-07 19:20 | 38.76825 | -9.13797 | 351 ft | 3 kts | 60° |
| 2026-05-07 19:21 | 38.76809 | -9.13817 | 352 ft | 3 kts | 19° |
| 2026-05-07 19:21 | 38.76801 | -9.13820 | 349 ft | 2 kts | 6° |
| 2026-05-07 19:21 | 38.76807 | -9.13821 | 354 ft | 0 kts | 352° |
| 2026-05-07 19:27 | 38.76808 | -9.13821 | 346 ft | 1 kts | 352° |
| 2026-05-07 19:28 | 38.76829 | -9.13825 | 355 ft | 5 kts | 352° |
| 2026-05-07 19:28 | 38.76876 | -9.13840 | 346 ft | 9 kts | 347° |
| 2026-05-07 19:28 | 38.76948 | -9.13858 | 354 ft | 12 kts | 349° |
| 2026-05-07 19:28 | 38.77011 | -9.13924 | 349 ft | 13 kts | 276° |
| 2026-05-07 19:29 | 38.76945 | -9.14001 | 348 ft | 15 kts | 205° |
| 2026-05-07 19:29 | 38.76835 | -9.14056 | 349 ft | 19 kts | 202° |
| 2026-05-07 19:29 | 38.76705 | -9.14125 | 347 ft | 22 kts | 201° |
| 2026-05-07 19:29 | 38.76652 | -9.14154 | 347 ft | 0 kts | 202° |
| 2026-05-07 19:30 | 38.76642 | -9.14158 | 353 ft | 4 kts | 202° |
| 2026-05-07 19:30 | 38.76606 | -9.14185 | 346 ft | 8 kts | 221° |
| 2026-05-07 19:31 | 38.76552 | -9.14228 | 346 ft | 11 kts | 207° |
| 2026-05-07 19:31 | 38.76539 | -9.14303 | 347 ft | 2 kts | 286° |
| 2026-05-07 19:33 | 38.76546 | -9.14328 | 336 ft | 7 kts | 291° |
| 2026-05-07 19:33 | 38.76592 | -9.14398 | 334 ft | 12 kts | 340° |
| 2026-05-07 19:33 | 38.76645 | -9.14390 | 337 ft | 0 kts | 19° |
| 2026-05-07 19:33 | 38.76646 | -9.14390 | 337 ft | 0 kts | 21° |
| 2026-05-07 19:34 | 38.76653 | -9.14386 | 337 ft | 9 kts | 21° |
| 2026-05-07 19:34 | 38.77035 | -9.14186 | 345 ft | 107 kts | 21° |
| 2026-05-07 19:34 | 38.77945 | -9.13705 | 478 ft | 170 kts | 20° |
| 2026-05-07 19:35 | 38.79127 | -9.13004 | 978 ft | 203 kts | 21° |
| 2026-05-07 19:35 | 38.80466 | -9.12192 | 1998 ft | 224 kts | 22° |
| 2026-05-07 19:35 | 38.81912 | -9.11282 | 3173 ft | 234 kts | 25° |
| 2026-05-07 19:35 | 38.83350 | -9.10250 | 4621 ft | 239 kts | 28° |
| 2026-05-07 19:36 | 38.84784 | -9.09160 | 6058 ft | 240 kts | 30° |
| 2026-05-07 19:36 | 38.86214 | -9.08070 | 7424 ft | 237 kts | 31° |
| 2026-05-07 19:36 | 38.87579 | -9.07033 | 8561 ft | 228 kts | 34° |
| 2026-05-07 19:36 | 38.88655 | -9.05580 | 9468 ft | 225 kts | 68° |
| 2026-05-07 19:37 | 38.88967 | -9.03674 | 10350 ft | 217 kts | 102° |
| 2026-05-07 19:37 | 38.88481 | -9.01884 | 11188 ft | 212 kts | 126° |
| 2026-05-07 19:37 | 38.87650 | -9.00315 | 12073 ft | 213 kts | 131° |
| 2026-05-07 19:37 | 38.86766 | -8.98765 | 12896 ft | 221 kts | 130° |
| 2026-05-07 19:38 | 38.85766 | -8.97198 | 13378 ft | 238 kts | 146° |
| 2026-05-07 19:38 | 38.84217 | -8.96297 | 13793 ft | 256 kts | 173° |
| 2026-05-07 19:38 | 38.82387 | -8.96482 | 14151 ft | 278 kts | 196° |
| 2026-05-07 19:38 | 38.80498 | -8.97407 | 14479 ft | 303 kts | 203° |
| 2026-05-07 19:39 | 38.78508 | -8.98592 | 14731 ft | 327 kts | 204° |
| 2026-05-07 19:39 | 38.76402 | -8.99848 | 15314 ft | 338 kts | 204° |
| 2026-05-07 19:39 | 38.74240 | -9.01085 | 16182 ft | 341 kts | 204° |
| 2026-05-07 19:39 | 38.72792 | -9.01888 | 16743 ft | 344 kts | 204° |
| 2026-05-07 19:40 | 38.69815 | -9.03502 | 17838 ft | 350 kts | 203° |
| 2026-05-07 19:40 | 38.67555 | -9.04709 | 18591 ft | 354 kts | 203° |
| 2026-05-07 19:40 | 38.65269 | -9.05926 | 19330 ft | 357 kts | 203° |
| 2026-05-07 19:40 | 38.62959 | -9.07155 | 19762 ft | 361 kts | 203° |
| 2026-05-07 19:41 | 38.60637 | -9.08391 | 19909 ft | 362 kts | 204° |
| 2026-05-07 19:41 | 38.58315 | -9.09629 | 19950 ft | 361 kts | 204° |
| 2026-05-07 19:41 | 38.56009 | -9.10858 | 19944 ft | 359 kts | 204° |
| 2026-05-07 19:41 | 38.53700 | -9.12088 | 19944 ft | 359 kts | 204° |
| 2026-05-07 19:42 | 38.51417 | -9.13304 | 19943 ft | 359 kts | 204° |
| 2026-05-07 19:42 | 38.49109 | -9.14532 | 19944 ft | 359 kts | 204° |
| 2026-05-07 19:42 | 38.46805 | -9.15758 | 19944 ft | 359 kts | 204° |
| 2026-05-07 19:42 | 38.44441 | -9.16643 | 19944 ft | 361 kts | 190° |
| 2026-05-07 19:43 | 38.41969 | -9.16684 | 19943 ft | 366 kts | 175° |
| 2026-05-07 19:43 | 38.39494 | -9.15811 | 19945 ft | 373 kts | 160° |
| 2026-05-07 19:43 | 38.37250 | -9.14096 | 19946 ft | 379 kts | 150° |
| 2026-05-07 19:43 | 38.35079 | -9.12178 | 19944 ft | 379 kts | 150° |
| 2026-05-07 19:44 | 38.32910 | -9.10260 | 19945 ft | 379 kts | 150° |
| 2026-05-07 19:44 | 38.30736 | -9.08345 | 19934 ft | 380 kts | 150° |
| 2026-05-07 19:44 | 38.28551 | -9.06427 | 19941 ft | 381 kts | 150° |
| 2026-05-07 19:44 | 38.26368 | -9.04515 | 19944 ft | 381 kts | 150° |
| 2026-05-07 19:45 | 38.24186 | -9.02606 | 19943 ft | 381 kts | 150° |
| 2026-05-07 19:45 | 38.22738 | -9.01342 | 19944 ft | 381 kts | 150° |
| 2026-05-07 19:45 | 38.20553 | -8.99435 | 19944 ft | 381 kts | 150° |
| 2026-05-07 19:45 | 38.18368 | -8.97529 | 19944 ft | 381 kts | 150° |
| 2026-05-07 19:46 | 38.16183 | -8.95623 | 19949 ft | 381 kts | 150° |
| 2026-05-07 19:46 | 38.14007 | -8.93728 | 19944 ft | 381 kts | 150° |
| 2026-05-07 19:46 | 38.11822 | -8.91826 | 19944 ft | 381 kts | 150° |
| 2026-05-07 19:46 | 38.09635 | -8.89924 | 19944 ft | 381 kts | 150° |
| 2026-05-07 19:47 | 38.07441 | -8.88110 | 19943 ft | 379 kts | 155° |
| 2026-05-07 19:47 | 38.05063 | -8.86608 | 19944 ft | 375 kts | 160° |
| 2026-05-07 19:47 | 38.02704 | -8.85288 | 19947 ft | 375 kts | 160° |
| 2026-05-07 19:47 | 38.00316 | -8.83942 | 19947 ft | 375 kts | 160° |
| 2026-05-07 19:48 | 37.97935 | -8.82596 | 19951 ft | 375 kts | 160° |
| 2026-05-07 19:48 | 37.95551 | -8.81247 | 19949 ft | 375 kts | 160° |
| 2026-05-07 19:48 | 37.93164 | -8.79897 | 19947 ft | 375 kts | 160° |
| 2026-05-07 19:48 | 37.90778 | -8.78549 | 19950 ft | 375 kts | 160° |
| 2026-05-07 19:49 | 37.88390 | -8.77200 | 19945 ft | 375 kts | 160° |
| 2026-05-07 19:49 | 37.86001 | -8.75853 | 19943 ft | 375 kts | 160° |
| 2026-05-07 19:49 | 37.83625 | -8.74511 | 19947 ft | 374 kts | 160° |
| 2026-05-07 19:49 | 37.81240 | -8.73168 | 19947 ft | 375 kts | 160° |
| 2026-05-07 19:50 | 37.78859 | -8.71829 | 19947 ft | 375 kts | 160° |
| 2026-05-07 19:50 | 37.76472 | -8.70488 | 19947 ft | 377 kts | 160° |
| 2026-05-07 19:50 | 37.74074 | -8.69141 | 19947 ft | 376 kts | 160° |
| 2026-05-07 19:50 | 37.71679 | -8.67796 | 19950 ft | 376 kts | 160° |
| 2026-05-07 19:51 | 37.69288 | -8.66452 | 19947 ft | 376 kts | 160° |
| 2026-05-07 19:51 | 37.66965 | -8.64885 | 19946 ft | 381 kts | 153° |
| 2026-05-07 19:51 | 37.64799 | -8.62929 | 19946 ft | 385 kts | 145° |
| 2026-05-07 19:51 | 37.62743 | -8.60763 | 19945 ft | 384 kts | 145° |
| 2026-05-07 19:52 | 37.60694 | -8.58615 | 19950 ft | 383 kts | 146° |
| 2026-05-07 19:52 | 37.58640 | -8.56473 | 19951 ft | 384 kts | 146° |
| 2026-05-07 19:52 | 37.56608 | -8.54359 | 19949 ft | 384 kts | 146° |
| 2026-05-07 19:52 | 37.54548 | -8.52221 | 19948 ft | 384 kts | 146° |
| 2026-05-07 19:53 | 37.52490 | -8.50085 | 19947 ft | 384 kts | 146° |
| 2026-05-07 19:53 | 37.50426 | -8.47945 | 19945 ft | 383 kts | 146° |
| 2026-05-07 19:53 | 37.48366 | -8.45810 | 19945 ft | 383 kts | 146° |
| 2026-05-07 19:53 | 37.46307 | -8.43678 | 19947 ft | 383 kts | 146° |
| 2026-05-07 19:54 | 37.44247 | -8.41546 | 19947 ft | 383 kts | 146° |
| 2026-05-07 19:54 | 37.42187 | -8.39415 | 19948 ft | 383 kts | 146° |
| 2026-05-07 19:54 | 37.40133 | -8.37291 | 19957 ft | 381 kts | 146° |
| 2026-05-07 19:54 | 37.38086 | -8.35175 | 19945 ft | 381 kts | 146° |
| 2026-05-07 19:55 | 37.36034 | -8.33062 | 19944 ft | 384 kts | 146° |
| 2026-05-07 19:55 | 37.33963 | -8.30930 | 19942 ft | 385 kts | 146° |
| 2026-05-07 19:55 | 37.31898 | -8.28801 | 19937 ft | 384 kts | 146° |
| 2026-05-07 19:55 | 37.29830 | -8.26670 | 19939 ft | 384 kts | 146° |
| 2026-05-07 19:56 | 37.27763 | -8.24542 | 19934 ft | 384 kts | 146° |
| 2026-05-07 19:56 | 37.25694 | -8.22415 | 19936 ft | 384 kts | 146° |
| 2026-05-07 19:56 | 37.23626 | -8.20290 | 19936 ft | 384 kts | 146° |
| 2026-05-07 19:56 | 37.21556 | -8.18165 | 19937 ft | 384 kts | 146° |
| 2026-05-07 19:57 | 37.19485 | -8.16040 | 19931 ft | 384 kts | 146° |
| 2026-05-07 19:57 | 37.17424 | -8.13924 | 19936 ft | 382 kts | 146° |
| 2026-05-07 19:57 | 37.15394 | -8.11844 | 19938 ft | 382 kts | 146° |
| 2026-05-07 19:57 | 37.13327 | -8.09730 | 19937 ft | 383 kts | 146° |
| 2026-05-07 19:58 | 37.11266 | -8.07622 | 19938 ft | 382 kts | 146° |
| 2026-05-07 19:58 | 37.09203 | -8.05514 | 19939 ft | 382 kts | 146° |
| 2026-05-07 19:58 | 37.07142 | -8.03409 | 19938 ft | 382 kts | 146° |
| 2026-05-07 19:58 | 37.05081 | -8.01306 | 19939 ft | 382 kts | 147° |
| 2026-05-07 19:59 | 37.02856 | -7.99552 | 19941 ft | 381 kts | 161° |
| 2026-05-07 19:59 | 37.00263 | -7.98642 | 19939 ft | 395 kts | 176° |
| 2026-05-07 19:59 | 36.97470 | -7.98643 | 19940 ft | 410 kts | 190° |
| 2026-05-07 19:59 | 36.94646 | -7.99387 | 19936 ft | 418 kts | 197° |
| 2026-05-07 20:00 | 36.91844 | -8.00380 | 19937 ft | 417 kts | 198° |
| 2026-05-07 20:00 | 36.89057 | -8.01403 | 19938 ft | 418 kts | 198° |
| 2026-05-07 20:00 | 36.86285 | -8.02388 | 19937 ft | 418 kts | 198° |
| 2026-05-07 20:00 | 36.83483 | -8.03345 | 19936 ft | 418 kts | 197° |
| 2026-05-07 20:01 | 36.80675 | -8.04279 | 19938 ft | 418 kts | 197° |
| 2026-05-07 20:01 | 36.77852 | -8.05205 | 19936 ft | 418 kts | 197° |
| 2026-05-07 20:01 | 36.75040 | -8.06122 | 19938 ft | 418 kts | 197° |
| 2026-05-07 20:01 | 36.72223 | -8.07039 | 19936 ft | 419 kts | 197° |
| 2026-05-07 20:02 | 36.69395 | -8.07959 | 19937 ft | 418 kts | 197° |
| 2026-05-07 20:02 | 36.66582 | -8.08874 | 19939 ft | 418 kts | 197° |
| 2026-05-07 20:02 | 36.63757 | -8.09793 | 19939 ft | 418 kts | 197° |
| 2026-05-07 20:02 | 36.60943 | -8.10708 | 19939 ft | 418 kts | 197° |
| 2026-05-07 20:03 | 36.58127 | -8.11623 | 19939 ft | 418 kts | 197° |
| 2026-05-07 20:03 | 36.55312 | -8.12537 | 19939 ft | 418 kts | 197° |
| 2026-05-07 20:03 | 36.52492 | -8.13452 | 19939 ft | 418 kts | 197° |
| 2026-05-07 20:03 | 36.49673 | -8.14366 | 19939 ft | 418 kts | 197° |
| 2026-05-07 20:04 | 36.46851 | -8.15280 | 19925 ft | 418 kts | 197° |
| 2026-05-07 20:04 | 36.44082 | -8.16174 | 19940 ft | 417 kts | 197° |
| 2026-05-07 20:04 | 36.41269 | -8.17083 | 19941 ft | 417 kts | 197° |
| 2026-05-07 20:04 | 36.38458 | -8.17991 | 19941 ft | 418 kts | 197° |
| 2026-05-07 20:05 | 36.35651 | -8.18898 | 19947 ft | 417 kts | 197° |
| 2026-05-07 20:05 | 36.32835 | -8.19806 | 19950 ft | 417 kts | 197° |
| 2026-05-07 20:05 | 36.30022 | -8.20713 | 19950 ft | 417 kts | 197° |
| 2026-05-07 20:05 | 36.27211 | -8.21619 | 19950 ft | 417 kts | 197° |
| 2026-05-07 20:06 | 36.24400 | -8.22524 | 19950 ft | 417 kts | 197° |
| 2026-05-07 20:06 | 36.21594 | -8.23426 | 19939 ft | 417 kts | 197° |
| 2026-05-07 20:06 | 36.18778 | -8.24331 | 19949 ft | 418 kts | 197° |
| 2026-05-07 20:06 | 36.15963 | -8.25235 | 19952 ft | 418 kts | 197° |
| 2026-05-07 20:07 | 36.13152 | -8.26137 | 19950 ft | 418 kts | 197° |
| 2026-05-07 20:07 | 36.10335 | -8.27040 | 19950 ft | 418 kts | 197° |
| 2026-05-07 20:07 | 36.07521 | -8.27942 | 19949 ft | 418 kts | 197° |
| 2026-05-07 20:07 | 36.04709 | -8.28843 | 19952 ft | 418 kts | 197° |
| 2026-05-07 20:08 | 36.01896 | -8.29743 | 19955 ft | 418 kts | 197° |
| 2026-05-07 20:08 | 35.99118 | -8.30632 | 19955 ft | 418 kts | 197° |
| 2026-05-07 20:08 | 35.96304 | -8.31531 | 19954 ft | 418 kts | 197° |
| 2026-05-07 20:08 | 35.93484 | -8.32429 | 19955 ft | 417 kts | 197° |
| 2026-05-07 20:09 | 35.90675 | -8.33320 | 19958 ft | 418 kts | 197° |
| 2026-05-07 20:09 | 35.87859 | -8.34214 | 19954 ft | 418 kts | 197° |
| 2026-05-07 20:09 | 35.85048 | -8.35105 | 19959 ft | 415 kts | 197° |
| 2026-05-07 20:10 | 35.79454 | -8.36878 | 19957 ft | 415 kts | 197° |
| 2026-05-07 20:10 | 35.76652 | -8.37766 | 19960 ft | 415 kts | 197° |
| 2026-05-07 20:10 | 35.73851 | -8.38652 | 19957 ft | 415 kts | 197° |
| 2026-05-07 20:10 | 35.71051 | -8.39537 | 19957 ft | 415 kts | 197° |
| 2026-05-07 20:11 | 35.68253 | -8.40421 | 19963 ft | 415 kts | 197° |
| 2026-05-07 20:11 | 35.65454 | -8.41305 | 19963 ft | 415 kts | 197° |
| 2026-05-07 20:11 | 35.62657 | -8.42188 | 19963 ft | 415 kts | 197° |
| 2026-05-07 20:11 | 35.59858 | -8.43070 | 19963 ft | 415 kts | 197° |
| 2026-05-07 20:12 | 35.57050 | -8.43955 | 19959 ft | 415 kts | 197° |
| 2026-05-07 20:12 | 35.54288 | -8.44824 | 19964 ft | 415 kts | 197° |
| 2026-05-07 20:12 | 35.51490 | -8.45704 | 19963 ft | 415 kts | 197° |
| 2026-05-07 20:12 | 35.48653 | -8.46596 | 19965 ft | 415 kts | 197° |
| 2026-05-07 20:13 | 35.45855 | -8.47475 | 19960 ft | 415 kts | 197° |
| 2026-05-07 20:13 | 35.43088 | -8.48343 | 19962 ft | 416 kts | 197° |
| 2026-05-07 20:13 | 35.40286 | -8.49222 | 19964 ft | 416 kts | 197° |
| 2026-05-07 20:13 | 35.37483 | -8.50101 | 19962 ft | 416 kts | 197° |
| 2026-05-07 20:14 | 35.34682 | -8.50970 | 19960 ft | 416 kts | 195° |
| 2026-05-07 20:14 | 35.31793 | -8.51357 | 19963 ft | 422 kts | 183° |
| 2026-05-07 20:14 | 35.28859 | -8.50924 | 19965 ft | 429 kts | 171° |
| 2026-05-07 20:14 | 35.25990 | -8.49654 | 19965 ft | 438 kts | 159° |
| 2026-05-07 20:15 | 35.23355 | -8.47844 | 19968 ft | 441 kts | 154° |
| 2026-05-07 20:15 | 35.20742 | -8.45871 | 19969 ft | 442 kts | 153° |
| 2026-05-07 20:15 | 35.18122 | -8.43888 | 19967 ft | 442 kts | 154° |
| 2026-05-07 20:15 | 35.15490 | -8.41938 | 19968 ft | 442 kts | 154° |
| 2026-05-07 20:16 | 35.12850 | -8.40021 | 19970 ft | 441 kts | 155° |
| 2026-05-07 20:16 | 35.10199 | -8.38121 | 19968 ft | 441 kts | 155° |
| 2026-05-07 20:16 | 35.07581 | -8.36255 | 19968 ft | 441 kts | 155° |
| 2026-05-07 20:16 | 35.04929 | -8.34370 | 19954 ft | 441 kts | 155° |
| 2026-05-07 20:17 | 35.02267 | -8.32482 | 19966 ft | 443 kts | 155° |
| 2026-05-07 20:17 | 34.99603 | -8.30591 | 19970 ft | 442 kts | 155° |
| 2026-05-07 20:17 | 34.96986 | -8.28734 | 19966 ft | 442 kts | 155° |
| 2026-05-07 20:17 | 34.94499 | -8.26971 | 19969 ft | 444 kts | 155° |
| 2026-05-07 20:18 | 34.91832 | -8.25082 | 19974 ft | 443 kts | 155° |
| 2026-05-07 20:18 | 34.89163 | -8.23191 | 19968 ft | 443 kts | 155° |
| 2026-05-07 20:18 | 34.86494 | -8.21303 | 19964 ft | 443 kts | 155° |
| 2026-05-07 20:18 | 34.83830 | -8.19420 | 19974 ft | 443 kts | 155° |
| 2026-05-07 20:19 | 34.81164 | -8.17537 | 19974 ft | 443 kts | 155° |
| 2026-05-07 20:19 | 34.78494 | -8.15652 | 19966 ft | 443 kts | 155° |
| 2026-05-07 20:19 | 34.75822 | -8.13768 | 19978 ft | 443 kts | 155° |
| 2026-05-07 20:19 | 34.73153 | -8.11887 | 19976 ft | 443 kts | 155° |
| 2026-05-07 20:20 | 34.71384 | -8.10642 | 19964 ft | 444 kts | 155° |
| 2026-05-07 20:20 | 34.67807 | -8.08126 | 19974 ft | 444 kts | 155° |
| 2026-05-07 20:20 | 34.65131 | -8.06244 | 19973 ft | 444 kts | 155° |
| 2026-05-07 20:20 | 34.62452 | -8.04362 | 19973 ft | 444 kts | 155° |
| 2026-05-07 20:21 | 34.59816 | -8.02511 | 19974 ft | 444 kts | 155° |
| 2026-05-07 20:21 | 34.57106 | -8.00609 | 19972 ft | 444 kts | 155° |
| 2026-05-07 20:21 | 34.54469 | -7.98759 | 19971 ft | 444 kts | 155° |
| 2026-05-07 20:21 | 34.51799 | -7.96889 | 19969 ft | 444 kts | 155° |
| 2026-05-07 20:22 | 34.49122 | -7.95015 | 19970 ft | 444 kts | 155° |
| 2026-05-07 20:22 | 34.46448 | -7.93146 | 19962 ft | 445 kts | 155° |
| 2026-05-07 20:22 | 34.43767 | -7.91273 | 19960 ft | 444 kts | 155° |
| 2026-05-07 20:22 | 34.41107 | -7.89413 | 19826 ft | 435 kts | 155° |
| 2026-05-07 20:23 | 34.38532 | -7.87610 | 19679 ft | 420 kts | 155° |
| 2026-05-07 20:23 | 34.36054 | -7.85874 | 19517 ft | 402 kts | 156° |
| 2026-05-07 20:23 | 34.33680 | -7.84215 | 19206 ft | 388 kts | 156° |
| 2026-05-07 20:23 | 34.31356 | -7.82600 | 18583 ft | 384 kts | 156° |
| 2026-05-07 20:24 | 34.29045 | -7.80999 | 17893 ft | 381 kts | 156° |
| 2026-05-07 20:24 | 34.26755 | -7.79413 | 17194 ft | 377 kts | 155° |
| 2026-05-07 20:24 | 34.24492 | -7.77843 | 16523 ft | 373 kts | 155° |
| 2026-05-07 20:24 | 34.22256 | -7.76292 | 15843 ft | 369 kts | 155° |
| 2026-05-07 20:25 | 34.19991 | -7.74882 | 15190 ft | 362 kts | 162° |
| 2026-05-07 20:25 | 34.17629 | -7.73947 | 14560 ft | 354 kts | 171° |
| 2026-05-07 20:25 | 34.15226 | -7.73491 | 13952 ft | 347 kts | 179° |
| 2026-05-07 20:25 | 34.12829 | -7.73290 | 13286 ft | 343 kts | 179° |
| 2026-05-07 20:26 | 34.10457 | -7.73079 | 12633 ft | 340 kts | 179° |
| 2026-05-07 20:26 | 34.08102 | -7.72863 | 11972 ft | 338 kts | 179° |
| 2026-05-07 20:26 | 34.05799 | -7.72773 | 11330 ft | 333 kts | 185° |
| 2026-05-07 20:26 | 34.03475 | -7.73040 | 10688 ft | 330 kts | 189° |
| 2026-05-07 20:27 | 34.01240 | -7.73364 | 10109 ft | 327 kts | 189° |
| 2026-05-07 20:27 | 33.98990 | -7.73694 | 9468 ft | 325 kts | 189° |
| 2026-05-07 20:27 | 33.96754 | -7.74026 | 8781 ft | 323 kts | 189° |
| 2026-05-07 20:27 | 33.94529 | -7.74359 | 8122 ft | 322 kts | 189° |
| 2026-05-07 20:28 | 33.92337 | -7.74697 | 7514 ft | 319 kts | 189° |
| 2026-05-07 20:28 | 33.90150 | -7.75048 | 7126 ft | 317 kts | 189° |
| 2026-05-07 20:28 | 33.87947 | -7.75410 | 6997 ft | 320 kts | 189° |
| 2026-05-07 20:28 | 33.85752 | -7.75773 | 6965 ft | 318 kts | 189° |
| 2026-05-07 20:29 | 33.83556 | -7.76135 | 6971 ft | 319 kts | 189° |
| 2026-05-07 20:29 | 33.81352 | -7.76499 | 6973 ft | 319 kts | 189° |
| 2026-05-07 20:29 | 33.79156 | -7.76859 | 6967 ft | 319 kts | 189° |
| 2026-05-07 20:29 | 33.76958 | -7.77220 | 6966 ft | 318 kts | 189° |
| 2026-05-07 20:30 | 33.74763 | -7.77581 | 6972 ft | 319 kts | 189° |
| 2026-05-07 20:30 | 33.72568 | -7.77944 | 6967 ft | 318 kts | 189° |
| 2026-05-07 20:30 | 33.70368 | -7.78308 | 6968 ft | 319 kts | 189° |
| 2026-05-07 20:30 | 33.68164 | -7.78680 | 6965 ft | 320 kts | 189° |
| 2026-05-07 20:31 | 33.65958 | -7.79023 | 6965 ft | 321 kts | 184° |
| 2026-05-07 20:31 | 33.63739 | -7.78701 | 6969 ft | 323 kts | 169° |
| 2026-05-07 20:31 | 33.61581 | -7.78123 | 6852 ft | 321 kts | 169° |
| 2026-05-07 20:31 | 33.59402 | -7.77546 | 6424 ft | 319 kts | 169° |
| 2026-05-07 20:32 | 33.57240 | -7.76979 | 5843 ft | 318 kts | 169° |
| 2026-05-07 20:32 | 33.55070 | -7.76416 | 5065 ft | 321 kts | 169° |
| 2026-05-07 20:32 | 33.52873 | -7.75843 | 4358 ft | 324 kts | 169° |
| 2026-05-07 20:32 | 33.50676 | -7.75303 | 4067 ft | 322 kts | 169° |
| 2026-05-07 20:33 | 33.49186 | -7.74949 | 3991 ft | 323 kts | 169° |
| 2026-05-07 20:33 | 33.46970 | -7.74422 | 3967 ft | 327 kts | 169° |
| 2026-05-07 20:33 | 33.44737 | -7.73892 | 3970 ft | 328 kts | 169° |
| 2026-05-07 20:33 | 33.42507 | -7.73377 | 3965 ft | 325 kts | 169° |
| 2026-05-07 20:34 | 33.40291 | -7.72879 | 3965 ft | 331 kts | 169° |
| 2026-05-07 20:34 | 33.38019 | -7.72364 | 3965 ft | 326 kts | 169° |
| 2026-05-07 20:34 | 33.35785 | -7.71858 | 3966 ft | 325 kts | 169° |
| 2026-05-07 20:34 | 33.33580 | -7.71361 | 3966 ft | 330 kts | 169° |
| 2026-05-07 20:35 | 33.31336 | -7.70859 | 3967 ft | 327 kts | 169° |
| 2026-05-07 20:35 | 33.29114 | -7.70362 | 3965 ft | 324 kts | 169° |
| 2026-05-07 20:35 | 33.26944 | -7.69878 | 3964 ft | 308 kts | 169° |
| 2026-05-07 20:35 | 33.24904 | -7.69419 | 3963 ft | 288 kts | 169° |
| 2026-05-07 20:36 | 33.22998 | -7.68990 | 3966 ft | 271 kts | 169° |
| 2026-05-07 20:36 | 33.21116 | -7.68568 | 3964 ft | 280 kts | 169° |
| 2026-05-07 20:36 | 33.19212 | -7.68145 | 3967 ft | 276 kts | 169° |
| 2026-05-07 20:36 | 33.17325 | -7.67725 | 3964 ft | 273 kts | 169° |
| 2026-05-07 20:37 | 33.15453 | -7.67306 | 3967 ft | 273 kts | 169° |
| 2026-05-07 20:37 | 33.13581 | -7.66888 | 3968 ft | 275 kts | 169° |
| 2026-05-07 20:37 | 33.11691 | -7.66468 | 3965 ft | 276 kts | 169° |
| 2026-05-07 20:37 | 33.09832 | -7.66051 | 3966 ft | 271 kts | 169° |
| 2026-05-07 20:38 | 33.07991 | -7.65535 | 3961 ft | 273 kts | 156° |
| 2026-05-07 20:38 | 33.06451 | -7.64226 | 3961 ft | 272 kts | 129° |
| 2026-05-07 20:38 | 33.05615 | -7.62300 | 3964 ft | 267 kts | 101° |
| 2026-05-07 20:38 | 33.05556 | -7.60433 | 3968 ft | 266 kts | 80° |
| 2026-05-07 20:39 | 33.05822 | -7.58282 | 3962 ft | 257 kts | 79° |
| 2026-05-07 20:39 | 33.06107 | -7.56151 | 3965 ft | 262 kts | 76° |
| 2026-05-07 20:39 | 33.06887 | -7.54227 | 3970 ft | 257 kts | 48° |
| 2026-05-07 20:39 | 33.08326 | -7.53007 | 3966 ft | 254 kts | 21° |
| 2026-05-07 20:40 | 33.10046 | -7.52565 | 3963 ft | 256 kts | 358° |
| 2026-05-07 20:40 | 33.11815 | -7.52882 | 3963 ft | 254 kts | 349° |
| 2026-05-07 20:40 | 33.13489 | -7.53335 | 3968 ft | 238 kts | 347° |
| 2026-05-07 20:40 | 33.15028 | -7.53768 | 3971 ft | 223 kts | 348° |
| 2026-05-07 20:41 | 33.16555 | -7.54056 | 3974 ft | 225 kts | 4° |
| 2026-05-07 20:41 | 33.18038 | -7.53495 | 3978 ft | 228 kts | 29° |
| 2026-05-07 20:41 | 33.19426 | -7.52565 | 3970 ft | 227 kts | 19° |
| 2026-05-07 20:41 | 33.20951 | -7.52503 | 4077 ft | 225 kts | 341° |
| 2026-05-07 20:42 | 33.22377 | -7.53375 | 4244 ft | 231 kts | 331° |
| 2026-05-07 20:42 | 33.23824 | -7.54184 | 4100 ft | 229 kts | 341° |
| 2026-05-07 20:42 | 33.25366 | -7.54869 | 3443 ft | 242 kts | 331° |
| 2026-05-07 20:42 | 33.26852 | -7.55858 | 2810 ft | 251 kts | 332° |
| 2026-05-07 20:43 | 33.28459 | -7.56603 | 2236 ft | 241 kts | 354° |
| 2026-05-07 20:43 | 33.30036 | -7.56945 | 1912 ft | 219 kts | 351° |
| 2026-05-07 20:43 | 33.31441 | -7.57313 | 1480 ft | 197 kts | 340° |
| 2026-05-07 20:43 | 33.32677 | -7.57849 | 1244 ft | 187 kts | 343° |
| 2026-05-07 20:44 | 33.33939 | -7.58252 | 1047 ft | 191 kts | 346° |
| 2026-05-07 20:44 | 33.35189 | -7.58678 | 717 ft | 184 kts | 345° |
| 2026-05-07 20:44 | 33.36358 | -7.59073 | 654 ft | 143 kts | 345° |
| 2026-05-07 20:44 | 33.37130 | -7.59340 | 649 ft | 92 kts | 344° |
| 2026-05-07 20:45 | 33.37658 | -7.59518 | 649 ft | 63 kts | 344° |
| 2026-05-07 20:45 | 33.37818 | -7.59526 | 644 ft | 9 kts | 310° |
| 2026-05-07 20:45 | 33.37892 | -7.59588 | 644 ft | 29 kts | 334° |
| 2026-05-07 20:45 | 33.38214 | -7.59712 | 642 ft | 52 kts | 345° |
| 2026-05-07 20:46 | 33.38314 | -7.59660 | 642 ft | 14 kts | 69° |
| 2026-05-07 20:46 | 33.38325 | -7.59610 | 644 ft | 0 kts | 76° |
| 2026-05-07 20:47 | 33.38331 | -7.59584 | 643 ft | 0 kts | 76° |
| 2026-05-07 20:47 | 33.38331 | -7.59583 | 643 ft | 0 kts | 76° |
| 2026-05-07 20:48 | 33.38333 | -7.59574 | 643 ft | 6 kts | 76° |
| 2026-05-07 20:48 | 33.38356 | -7.59481 | 645 ft | 17 kts | 72° |
| 2026-05-07 20:48 | 33.38401 | -7.59312 | 642 ft | 24 kts | 72° |
| 2026-05-07 20:48 | 33.38443 | -7.59123 | 645 ft | 19 kts | 74° |
| 2026-05-07 20:49 | 33.38406 | -7.58998 | 644 ft | 18 kts | 157° |
| 2026-05-07 20:49 | 33.38276 | -7.58956 | 645 ft | 21 kts | 164° |
| 2026-05-07 20:49 | 33.38123 | -7.58902 | 645 ft | 25 kts | 163° |
| 2026-05-07 20:49 | 33.37950 | -7.58840 | 646 ft | 27 kts | 164° |
| 2026-05-07 20:50 | 33.37900 | -7.58755 | 646 ft | 9 kts | 73° |
| 2026-05-07 20:50 | 33.37910 | -7.58671 | 646 ft | 12 kts | 99° |
| 2026-05-07 20:50 | 33.37858 | -7.58583 | 646 ft | 15 kts | 128° |
| 2026-05-07 20:50 | 33.37777 | -7.58486 | 647 ft | 18 kts | 152° |
| 2026-05-07 20:51 | 33.37645 | -7.58443 | 647 ft | 21 kts | 173° |
| 2026-05-07 20:51 | 33.37541 | -7.58421 | 648 ft | 0 kts | 166° |
| 2026-05-07 20:51 | 33.37525 | -7.58416 | 648 ft | 5 kts | 163° |
| 2026-05-07 20:51 | 33.37484 | -7.58401 | 648 ft | 0 kts | 163° |
| 2026-05-07 20:52 | 33.37471 | -7.58392 | 651 ft | 4 kts | 144° |
| 2026-05-07 20:52 | 33.37452 | -7.58350 | 650 ft | 7 kts | 115° |
| 2026-05-07 20:52 | 33.37450 | -7.58303 | 648 ft | 5 kts | 73° |
| 2026-05-07 20:52 | 33.37454 | -7.58295 | 648 ft | 3 kts | 63° |
| 2026-05-07 20:53 | 33.37458 | -7.58282 | 648 ft | 0 kts | 68° |
| 2026-05-07 20:53 | 33.37458 | -7.58281 | 648 ft | 0 kts | 68° |